Terminal Aerodrome Forecast
Issued by NWS Memphis, TN

Home | Current Version | Previous Version | Text Only | Print | Product List | Glossary On
Versions: 1 2 3 4 5 6 7 8 9 10 11 12
000
FTUS44 KMEG 220520
TAFJBR
TAF
KJBR 220520Z 2206/2306 09005KT P6SM OVC050
     FM221500 18012G20KT P6SM OVC150
     FM230100 17008KT P6SM VCSH SCT050 OVC100=

USA.gov is the U.S. government's official web portal to all federal, state and local government web resources and services.